Impacts TAF Board
For situational awareness. Not to be used for flight planning purposes.
IDs:

KBVI - Beaver Falls Arpt, PA, US

Issued at 0520 UTC 07 Dec 2022
Updated at 0801 UTC 07 Dec 2022
Potential Impact None Slight Moderate High
Time<<07/20Z 07/21Z 07/22Z 07/23Z 08/00Z 08/01Z 08/02Z 08/03Z 08/04Z 08/05Z 08/06Z 08/07Z 08/08Z>>
Type PRVL PRVL PRVL PRVL PRVL PRVL PRVL PRVL PRVL PRVL
VIS 2 2 2 2 2 2 2 3 3 3
CIG 4 4 4 4 4 4 4 6 6 6
Cover OVC OVC OVC OVC OVC OVC OVC OVC OVC OVC
FltCat LIFR LIFR LIFR LIFR LIFR LIFR LIFR IFR IFR IFR
WX BR BR BR BR BR BR BR BR BR BR
WDir 280 280 280 280 280 280 280 350 350 350
WSpd 5 5 5 5 5 5 5 5 5 5
WGst -- -- -- -- -- -- -- -- -- --
WSHgt -- -- -- -- -- -- -- -- -- --
WSDir -- -- -- -- -- -- -- -- -- --
WSSpd -- -- -- -- -- -- -- -- -- --
Raw TAF
KBVI 070520Z 0706/0806 18003KT 1/4SM -RA FG OVC001
  FM071200 22003KT 1/4SM -DZ FG OVC001
  FM071700 28005KT 2SM BR OVC004
  FM080300 35005KT 3SM BR OVC006


METAR Board
Radar Display
Forecast Discussion
For situational awareness. Not to be used for flight planning purposes.